createdAt,value
2024-03-01T00:00:44.154Z,24.50
2024-03-01T00:04:03.153Z,23.20
2024-03-01T00:07:23.206Z,22.50
2024-03-01T00:10:42.021Z,22.60
2024-03-01T00:14:01.072Z,21.60
2024-03-01T00:17:27.020Z,22.10
2024-03-01T00:20:39.518Z,21.80
2024-03-01T00:23:58.185Z,21.00
2024-03-01T00:27:17.027Z,24.20
2024-03-01T00:30:36.196Z,29.30
2024-03-01T00:33:55.635Z,29.00
2024-03-01T00:37:14.185Z,29.20
2024-03-01T00:40:33.216Z,27.80
2024-03-01T00:43:52.042Z,28.20
2024-03-01T00:47:14.180Z,26.90
2024-03-01T00:50:32.067Z,28.20
2024-03-01T00:53:52.051Z,26.80
2024-03-01T00:57:11.109Z,27.20
2024-03-01T01:00:31.072Z,27.30
2024-03-01T01:03:49.399Z,26.10
2024-03-01T01:06:17.549Z,25.50
2024-03-01T01:09:19.985Z,24.60
2024-03-01T01:12:40.461Z,24.60
2024-03-01T01:15:59.254Z,23.80
2024-03-01T01:18:42.456Z,23.50
2024-03-01T01:21:19.727Z,23.80
2024-03-01T01:24:38.329Z,25.00
2024-03-01T01:27:57.133Z,22.90
2024-03-01T01:31:16.179Z,25.50
2024-03-01T01:34:34.250Z,25.40
2024-03-01T01:37:54.524Z,26.80
2024-03-01T01:41:14.309Z,25.60
2024-03-01T01:44:33.297Z,25.70
2024-03-01T01:47:52.170Z,26.60
2024-03-01T01:51:11.275Z,28.20
2024-03-01T01:54:29.424Z,27.40
2024-03-01T01:57:48.321Z,27.00
2024-03-01T02:00:42.146Z,29.00
2024-03-01T02:04:03.371Z,35.40
2024-03-01T02:07:22.236Z,35.30
2024-03-01T02:10:40.259Z,33.00
2024-03-01T02:13:59.344Z,31.00
2024-03-01T02:17:19.306Z,31.10
2024-03-01T02:20:00.280Z,31.60
2024-03-01T02:23:19.419Z,33.60
2024-03-01T02:26:37.287Z,33.10
2024-03-01T02:29:58.328Z,34.40
2024-03-01T02:33:17.246Z,37.10
2024-03-01T02:36:37.250Z,34.40
2024-03-01T02:39:55.231Z,35.10
2024-03-01T02:42:55.371Z,35.10
2024-03-01T02:45:41.297Z,35.10
2024-03-01T02:49:00.345Z,36.20
2024-03-01T02:51:27.973Z,39.00
2024-03-01T02:54:47.269Z,37.80
2024-03-01T02:58:06.121Z,38.10
2024-03-01T03:01:24.714Z,37.70
2024-03-01T03:04:43.388Z,36.20
2024-03-01T03:08:02.543Z,35.50
2024-03-01T03:11:22.380Z,33.50
2024-03-01T03:14:42.284Z,32.70
2024-03-01T03:18:01.706Z,34.60
2024-03-01T03:20:29.986Z,32.30
2024-03-01T03:23:48.512Z,33.30
2024-03-01T03:27:08.446Z,32.30
2024-03-01T03:30:27.475Z,33.30
2024-03-01T03:33:05.153Z,31.60
2024-03-01T03:39:21.788Z,32.90
2024-03-01T03:42:40.347Z,33.60
2024-03-01T03:45:58.469Z,32.30
2024-03-01T03:49:17.561Z,31.20
2024-03-01T03:52:36.387Z,34.50
2024-03-01T03:55:55.419Z,31.10
2024-03-01T03:59:18.612Z,31.70
2024-03-01T04:02:11.443Z,31.80
2024-03-01T04:05:30.378Z,31.80
2024-03-01T04:08:51.372Z,31.30
2024-03-01T04:12:10.544Z,32.90
2024-03-01T04:15:28.504Z,31.70
2024-03-01T04:18:47.363Z,31.20
2024-03-01T04:21:15.767Z,29.60
2024-03-01T04:24:35.551Z,32.00
2024-03-01T04:27:09.933Z,30.10
2024-03-01T04:30:28.459Z,30.60
2024-03-01T04:33:46.539Z,27.50
2024-03-01T04:37:05.581Z,24.40
2024-03-01T04:40:24.447Z,23.40
2024-03-01T04:43:43.633Z,24.40
2024-03-01T04:47:03.582Z,24.20
2024-03-01T04:50:23.679Z,23.20
2024-03-01T04:53:42.466Z,21.00
2024-03-01T04:57:01.578Z,21.20
2024-03-01T05:00:20.471Z,19.40
2024-03-01T05:03:41.507Z,21.00
2024-03-01T05:07:00.593Z,21.00
2024-03-01T05:10:19.754Z,19.80
2024-03-01T05:13:38.816Z,21.30
2024-03-01T05:16:59.777Z,21.90
2024-03-01T05:20:16.539Z,20.90
2024-03-01T05:22:58.821Z,23.50
2024-03-01T05:26:18.700Z,23.30
2024-03-01T05:29:40.496Z,23.90
2024-03-01T05:32:58.613Z,24.20
2024-03-01T05:35:48.374Z,23.50
2024-03-01T05:39:05.591Z,25.40
2024-03-01T05:42:28.739Z,25.30
2024-03-01T05:45:39.772Z,25.90
2024-03-01T05:48:35.305Z,24.10
2024-03-01T05:51:53.811Z,24.10
2024-03-01T05:58:55.255Z,25.90
2024-03-01T06:02:14.244Z,26.60
2024-03-01T06:05:33.048Z,24.80
2024-03-01T06:08:52.171Z,24.80
2024-03-01T06:12:18.035Z,25.50
2024-03-01T06:14:56.051Z,24.50
2024-03-01T06:17:24.120Z,24.90
2024-03-01T06:20:44.161Z,24.60
2024-03-01T06:24:05.084Z,23.90
2024-03-01T06:46:06.228Z,24.40
2024-03-01T07:03:09.866Z,24.20
2024-03-01T07:43:43.711Z,23.00
2024-03-01T09:10:34.828Z,19.70
2024-03-01T09:13:05.131Z,18.00
2024-03-01T09:15:52.061Z,17.90
2024-03-01T09:18:51.181Z,17.40
2024-03-01T09:21:43.267Z,18.40
2024-03-01T09:25:07.221Z,17.20
2024-03-01T09:27:36.182Z,18.10
2024-03-01T09:30:52.103Z,16.50
2024-03-01T09:33:31.869Z,17.40
2024-03-01T09:36:00.916Z,16.30
2024-03-01T09:38:55.566Z,16.70
2024-03-01T09:41:53.357Z,16.20
2024-03-01T09:45:12.384Z,17.00
2024-03-01T09:48:18.246Z,16.20
2024-03-01T09:51:03.630Z,16.30
2024-03-01T09:53:50.294Z,15.50
2024-03-01T09:56:57.511Z,14.80
2024-03-01T09:59:57.445Z,14.70
2024-03-01T10:02:52.596Z,14.90
2024-03-01T10:06:02.133Z,14.50
2024-03-01T10:09:14.620Z,14.30
2024-03-01T10:12:20.360Z,13.40
2024-03-01T10:15:02.695Z,12.80
2024-03-01T10:18:26.618Z,12.90
2024-03-01T10:21:17.263Z,11.70
2024-03-01T10:24:41.590Z,11.60
2024-03-01T10:27:40.246Z,12.30
2024-03-01T10:30:48.705Z,11.60
2024-03-01T10:33:59.195Z,12.80
2024-03-01T10:37:15.628Z,11.40
2024-03-01T10:39:43.728Z,11.50
2024-03-01T10:43:10.472Z,11.80
2024-03-01T10:46:17.448Z,10.60
2024-03-01T10:49:24.177Z,11.10
2024-03-01T10:52:10.416Z,10.50
2024-03-01T10:54:53.036Z,9.70
2024-03-01T10:57:21.411Z,9.90
2024-03-01T11:00:14.050Z,9.80
2024-03-01T11:02:42.711Z,9.90
2024-03-01T11:06:06.479Z,9.60
2024-03-01T11:08:59.810Z,9.50
2024-03-01T11:11:52.808Z,10.60
2024-03-01T11:14:33.817Z,10.20
2024-03-01T11:17:19.759Z,9.90
2024-03-01T11:19:49.161Z,10.80
2024-03-01T11:22:21.188Z,10.70
2024-03-01T11:25:45.058Z,10.00
2024-03-01T11:28:58.856Z,10.40
2024-03-01T11:32:06.046Z,10.50
2024-03-01T11:37:58.680Z,10.70
2024-03-01T11:40:53.220Z,12.10
2024-03-01T11:44:14.846Z,11.50
2024-03-01T11:47:24.219Z,10.80
2024-03-01T11:50:00.914Z,11.70
2024-03-01T11:53:25.457Z,11.60
2024-03-01T11:56:31.253Z,12.20
2024-03-01T11:59:47.039Z,10.50
2024-03-01T12:02:30.261Z,11.10
2024-03-01T12:09:16.165Z,10.40
2024-03-01T12:15:47.449Z,9.20
2024-03-01T12:18:58.775Z,9.40
2024-03-01T12:22:10.680Z,10.00
2024-03-01T12:27:45.341Z,10.20
2024-03-01T12:37:11.218Z,9.30
2024-03-01T12:40:23.115Z,9.90
2024-03-01T12:46:41.639Z,10.40
2024-03-01T12:49:42.470Z,9.90
2024-03-01T12:55:47.643Z,8.50
2024-03-01T12:59:00.789Z,8.60
2024-03-01T13:02:12.552Z,9.10
2024-03-01T13:05:24.205Z,8.10
2024-03-01T13:17:29.063Z,7.90
2024-03-01T13:20:46.428Z,7.80
2024-03-01T13:23:58.041Z,7.90
2024-03-01T13:32:47.889Z,11.00
2024-03-01T13:38:36.395Z,31.00
2024-03-01T13:41:10.029Z,15.20
2024-03-01T13:53:13.092Z,11.30
2024-03-01T13:59:21.048Z,11.90
2024-03-01T14:05:41.752Z,11.30
2024-03-01T14:08:53.652Z,11.70
2024-03-01T14:20:50.281Z,11.40
2024-03-01T14:39:06.509Z,9.80
2024-03-01T14:47:47.881Z,11.30
2024-03-01T14:51:00.951Z,10.90
2024-03-01T14:54:12.494Z,11.00
2024-03-01T14:56:42.002Z,9.80
2024-03-01T15:11:49.084Z,12.00
2024-03-01T15:15:05.081Z,13.70
2024-03-01T15:24:10.862Z,13.40
2024-03-01T15:33:35.625Z,12.60
2024-03-01T15:39:35.068Z,13.80
2024-03-01T15:45:53.349Z,14.60
2024-03-01T15:49:05.309Z,14.50
2024-03-01T15:57:45.980Z,14.70
2024-03-01T16:00:58.934Z,14.20
2024-03-01T16:03:40.411Z,15.30
2024-03-01T16:06:51.843Z,14.60
2024-03-01T16:10:04.223Z,16.40
2024-03-01T16:13:15.744Z,15.10
2024-03-01T16:15:56.658Z,15.10
2024-03-01T16:25:01.532Z,26.40
2024-03-01T16:34:02.885Z,24.60
2024-03-01T16:37:14.614Z,21.20
2024-03-01T16:40:28.569Z,18.80
2024-03-01T16:43:44.509Z,18.70
2024-03-01T16:52:49.441Z,18.80
2024-03-01T16:55:48.904Z,19.60
2024-03-01T17:02:11.337Z,18.80
2024-03-01T17:11:17.669Z,19.50
2024-03-01T17:17:23.810Z,18.80
2024-03-01T17:22:46.549Z,20.90
2024-03-01T17:25:57.398Z,21.90
2024-03-01T17:29:09.452Z,21.00
2024-03-01T17:37:07.232Z,22.10
2024-03-01T17:46:03.356Z,18.60
2024-03-01T17:49:15.157Z,18.20
2024-03-01T18:04:50.020Z,19.20
2024-03-01T18:14:12.234Z,16.90
2024-03-01T18:17:27.084Z,17.50
2024-03-01T18:20:38.909Z,16.40
2024-03-01T18:23:50.812Z,15.60
2024-03-01T18:45:23.723Z,16.90
2024-03-01T18:54:15.980Z,16.00
2024-03-01T18:57:28.049Z,14.90
2024-03-01T19:00:43.602Z,17.10
2024-03-01T19:03:23.441Z,16.70
2024-03-01T19:09:28.986Z,17.30
2024-03-01T19:15:37.119Z,16.70
2024-03-01T19:18:48.778Z,16.40
2024-03-01T19:22:00.564Z,15.80
2024-03-01T19:31:09.974Z,18.70
2024-03-01T19:46:46.392Z,16.20
2024-03-01T19:52:57.282Z,16.20
2024-03-01T19:55:33.173Z,17.80
2024-03-01T19:58:21.286Z,18.60
2024-03-01T20:01:01.810Z,17.80
2024-03-01T20:10:29.638Z,18.10
2024-03-01T20:17:05.639Z,17.80
2024-03-01T20:20:36.073Z,17.70
2024-03-01T20:30:09.762Z,17.50
2024-03-01T20:33:22.865Z,18.40
2024-03-01T20:36:34.707Z,17.90
2024-03-01T20:39:10.356Z,18.30
2024-03-01T20:41:57.073Z,20.30
2024-03-01T20:50:01.150Z,21.60
2024-03-01T20:52:35.427Z,20.90
2024-03-01T20:58:08.851Z,20.60
2024-03-01T21:00:41.871Z,22.60
2024-03-01T21:03:52.910Z,20.20
2024-03-01T21:19:40.989Z,20.60
2024-03-01T21:25:36.675Z,18.50
2024-03-01T21:28:54.013Z,17.50
2024-03-01T21:32:10.179Z,18.00
2024-03-01T21:38:28.046Z,19.80
2024-03-01T21:41:39.808Z,19.90
2024-03-01T21:44:51.200Z,22.40
2024-03-01T21:48:01.992Z,24.10
2024-03-01T21:51:13.113Z,23.50
2024-03-01T21:54:11.230Z,24.10
2024-03-01T21:56:44.477Z,24.80
2024-03-01T21:59:17.285Z,26.10
2024-03-01T22:01:44.030Z,25.20
2024-03-01T22:07:33.250Z,25.30
2024-03-01T22:10:24.778Z,24.60
2024-03-01T22:16:07.590Z,20.50
2024-03-01T22:19:15.605Z,20.50
2024-03-01T22:27:53.115Z,23.20
2024-03-01T22:30:23.854Z,23.00
2024-03-01T22:33:35.097Z,22.20
2024-03-01T22:36:01.935Z,20.90
2024-03-01T22:38:28.967Z,23.10
2024-03-01T22:40:56.303Z,22.20
2024-03-01T22:44:04.252Z,23.50
2024-03-01T22:46:40.215Z,23.20
2024-03-01T22:49:10.870Z,22.50
2024-03-01T22:55:31.056Z,21.10
2024-03-01T22:58:41.868Z,22.20
2024-03-01T23:01:27.948Z,23.40
2024-03-01T23:13:32.617Z,22.10
2024-03-01T23:16:03.798Z,22.80
2024-03-01T23:19:18.430Z,22.90
2024-03-01T23:21:45.448Z,22.80
2024-03-01T23:38:29.691Z,26.30
2024-03-01T23:44:50.169Z,27.30
2024-03-01T23:47:57.447Z,27.80
2024-03-01T23:51:08.975Z,28.00
2024-03-01T23:56:52.728Z,26.60
2024-03-01T23:59:25.857Z,24.90
